createdAt,value
2019-05-21T20:53:03.048Z,5.78
2019-05-21T20:55:33.987Z,6.17
2019-05-21T20:58:16.474Z,6.40
2019-05-21T21:00:49.570Z,5.62
2019-05-21T21:03:19.683Z,6.17
2019-05-21T21:05:50.033Z,5.45
2019-05-21T21:08:22.661Z,4.83
2019-05-21T21:10:57.318Z,6.16
2019-05-21T21:13:28.869Z,5.45
2019-05-21T21:15:59.331Z,5.78
2019-05-21T21:18:29.863Z,5.20
2019-05-21T21:20:59.539Z,5.22
2019-05-21T21:23:31.000Z,5.45
2019-05-21T21:26:00.945Z,5.12
2019-05-21T21:28:30.654Z,4.70
2019-05-21T21:31:00.622Z,4.62
2019-05-21T21:33:30.754Z,4.15
2019-05-21T21:36:00.747Z,4.15
2019-05-21T21:38:33.386Z,4.50
2019-05-21T21:41:03.052Z,4.60
2019-05-21T21:43:32.830Z,4.55
2019-05-21T21:46:02.699Z,4.85
2019-05-21T21:48:32.817Z,5.10
2019-05-21T21:51:02.646Z,5.12
2019-05-21T21:53:33.035Z,5.00
2019-05-21T21:56:02.679Z,4.10
2019-05-21T21:58:32.527Z,5.37
2019-05-21T22:01:06.580Z,4.92
2019-05-21T22:03:38.921Z,4.30
2019-05-21T22:06:15.351Z,4.55
2019-05-21T22:08:48.347Z,5.08
2019-05-21T22:11:20.065Z,4.53
2019-05-21T22:13:49.950Z,5.08
2019-05-21T22:16:20.300Z,4.97
2019-05-21T22:18:50.862Z,5.42
2019-05-21T22:21:21.149Z,4.80
2019-05-21T22:23:50.860Z,4.75
2019-05-21T22:26:20.558Z,4.05
2019-05-21T22:28:50.477Z,4.70
2019-05-21T22:31:20.262Z,4.40
2019-05-21T22:33:50.031Z,4.65
2019-05-21T22:36:19.921Z,3.92
2019-05-21T22:38:49.738Z,4.08
2019-05-21T22:41:38.605Z,3.37
2019-05-21T22:44:08.174Z,3.45
2019-05-21T22:46:37.794Z,3.72
2019-05-21T22:49:07.420Z,3.98
2019-05-21T22:51:36.991Z,3.50
2019-05-21T22:54:06.674Z,3.67
2019-05-21T22:56:36.368Z,4.85
2019-05-21T22:59:06.150Z,3.58
2019-05-21T23:01:37.842Z,3.90
2019-05-21T23:04:07.522Z,4.55
2019-05-21T23:06:37.459Z,4.60
2019-05-21T23:09:08.603Z,4.40
2019-05-21T23:11:38.587Z,3.90
2019-05-21T23:14:08.307Z,3.70
2019-05-21T23:16:38.093Z,4.08
2019-05-21T23:19:08.902Z,3.77
2019-05-21T23:21:39.709Z,3.80
2019-05-21T23:24:26.111Z,3.75
2019-05-21T23:26:56.358Z,3.75
2019-05-21T23:29:26.342Z,3.12
2019-05-21T23:31:56.336Z,3.02
2019-05-21T23:34:26.833Z,3.92
2019-05-21T23:36:57.769Z,3.70
2019-05-21T23:39:28.432Z,3.40
2019-05-21T23:41:58.187Z,3.02
2019-05-21T23:44:27.979Z,3.33
2019-05-21T23:46:58.279Z,3.42
2019-05-21T23:49:28.363Z,2.37
2019-05-21T23:51:58.304Z,3.12
2019-05-21T23:54:28.224Z,3.20
2019-05-21T23:56:59.813Z,2.52
2019-05-21T23:59:29.469Z,2.92
